createdAt,value
2018-12-30T00:02:11.734Z,93.70
2018-12-30T00:04:42.025Z,93.70
2018-12-30T00:07:12.008Z,93.70
2018-12-30T00:09:41.909Z,93.90
2018-12-30T00:12:11.769Z,93.90
2018-12-30T00:14:42.115Z,93.80
2018-12-30T00:17:11.913Z,93.70
2018-12-30T00:19:42.333Z,93.80
2018-12-30T00:22:12.449Z,93.70
2018-12-30T00:24:42.145Z,93.70
2018-12-30T00:27:13.142Z,93.50
2018-12-30T00:29:42.809Z,93.20
2018-12-30T00:32:13.072Z,93.20
2018-12-30T00:34:43.393Z,93.20
2018-12-30T00:37:13.084Z,93.10
2018-12-30T00:39:42.935Z,92.90
2018-12-30T00:42:12.634Z,92.70
2018-12-30T00:44:42.505Z,92.50
2018-12-30T00:47:12.822Z,92.50
2018-12-30T00:49:42.704Z,92.60
2018-12-30T00:52:13.386Z,92.30
2018-12-30T00:54:43.046Z,92.70
2018-12-30T00:57:12.664Z,92.60
2018-12-30T00:59:42.946Z,92.60
2018-12-30T01:02:12.649Z,92.70
2018-12-30T01:04:42.553Z,92.70
2018-12-30T01:07:12.749Z,92.70
2018-12-30T01:09:42.360Z,92.50
2018-12-30T01:12:12.440Z,92.60
2018-12-30T01:14:42.525Z,92.60
2018-12-30T01:17:12.424Z,92.80
2018-12-30T01:19:42.161Z,92.70
2018-12-30T01:22:12.550Z,92.40
2018-12-30T01:24:42.193Z,93.00
2018-12-30T01:27:12.220Z,92.60
2018-12-30T01:29:42.236Z,92.20
2018-12-30T01:32:12.264Z,92.10
2018-12-30T01:34:42.524Z,92.10
2018-12-30T01:37:12.233Z,92.20
2018-12-30T01:39:42.310Z,92.20
2018-12-30T01:42:12.565Z,92.30
2018-12-30T01:44:42.346Z,92.10
2018-12-30T01:47:12.597Z,91.90
2018-12-30T01:49:42.480Z,91.90
2018-12-30T01:52:13.132Z,91.30
2018-12-30T01:54:42.748Z,91.50
2018-12-30T01:57:12.433Z,91.20
2018-12-30T01:59:42.662Z,91.10
2018-12-30T02:02:12.726Z,91.00
2018-12-30T02:04:42.388Z,90.90
2018-12-30T02:07:12.680Z,90.80
2018-12-30T02:09:42.422Z,90.80
2018-12-30T02:12:12.696Z,90.20
2018-12-30T02:14:42.564Z,90.60
2018-12-30T02:17:12.643Z,90.00
2018-12-30T02:19:42.855Z,90.10
2018-12-30T02:22:13.074Z,89.90
2018-12-30T02:24:43.196Z,88.80
2018-12-30T02:27:12.986Z,89.00
2018-12-30T02:29:42.919Z,89.30
2018-12-30T02:32:13.680Z,88.50
2018-12-30T02:34:43.288Z,88.10
2018-12-30T02:37:13.441Z,87.60
2018-12-30T02:39:43.054Z,87.00
2018-12-30T02:42:13.291Z,87.50
2018-12-30T02:44:42.912Z,87.80
2018-12-30T02:47:13.184Z,86.30
2018-12-30T02:49:43.016Z,86.70
2018-12-30T02:52:12.986Z,86.80
2018-12-30T02:54:42.999Z,86.40
2018-12-30T02:57:13.546Z,86.10
2018-12-30T02:59:43.428Z,86.70
2018-12-30T03:02:13.619Z,86.10
2018-12-30T03:04:43.558Z,86.80
2018-12-30T03:07:13.344Z,86.70
2018-12-30T03:09:43.422Z,86.70
2018-12-30T03:12:13.686Z,86.10
2018-12-30T03:14:43.373Z,85.90
2018-12-30T03:17:13.891Z,85.90
2018-12-30T03:19:43.960Z,86.00
2018-12-30T03:22:13.770Z,85.40
2018-12-30T03:24:43.638Z,85.60
2018-12-30T03:27:13.444Z,85.90
2018-12-30T03:29:43.690Z,85.30
2018-12-30T03:32:13.471Z,85.50
2018-12-30T03:34:43.468Z,84.60
2018-12-30T03:37:13.490Z,84.80
2018-12-30T03:39:43.557Z,84.50
2018-12-30T03:42:13.866Z,84.40
2018-12-30T03:44:43.724Z,84.60
2018-12-30T03:47:13.748Z,83.70
2018-12-30T03:49:43.786Z,83.80
2018-12-30T03:52:13.789Z,84.00
2018-12-30T03:54:43.579Z,84.60
2018-12-30T03:57:13.561Z,85.20
2018-12-30T03:59:43.629Z,84.50
2018-12-30T04:02:13.587Z,84.80
2018-12-30T04:04:43.905Z,84.40
2018-12-30T04:07:14.047Z,85.90
2018-12-30T04:09:43.653Z,85.60
2018-12-30T04:12:14.355Z,85.90
2018-12-30T04:14:43.975Z,85.40
2018-12-30T04:17:13.672Z,85.80
2018-12-30T04:19:43.867Z,85.30
2018-12-30T04:22:16.951Z,85.50
2018-12-30T04:24:45.184Z,84.80
2018-12-30T04:27:15.354Z,85.40
2018-12-30T04:29:44.961Z,85.10
2018-12-30T04:32:15.049Z,85.30
2018-12-30T04:34:44.796Z,85.60
2018-12-30T04:37:14.445Z,85.70
2018-12-30T04:39:44.186Z,85.10
2018-12-30T04:42:13.822Z,84.70
2018-12-30T04:44:43.993Z,84.70
2018-12-30T04:47:13.754Z,84.70
2018-12-30T04:49:44.021Z,84.90
2018-12-30T04:52:13.816Z,85.10
2018-12-30T04:54:43.841Z,84.70
2018-12-30T04:57:14.449Z,84.60
2018-12-30T04:59:44.298Z,85.20
2018-12-30T05:02:14.114Z,85.10
2018-12-30T05:04:44.084Z,84.90
2018-12-30T05:07:13.901Z,85.10
2018-12-30T05:09:44.520Z,84.90
2018-12-30T05:12:14.408Z,84.80
2018-12-30T05:14:44.021Z,84.60
2018-12-30T05:17:13.939Z,84.20
2018-12-30T05:19:44.241Z,84.50
2018-12-30T05:22:14.050Z,84.00
2018-12-30T05:24:44.101Z,84.20
2018-12-30T05:27:14.001Z,84.60
2018-12-30T05:29:44.101Z,84.20
2018-12-30T05:32:14.354Z,84.50
2018-12-30T05:34:44.065Z,84.10
2018-12-30T05:37:14.082Z,84.00
2018-12-30T05:39:44.344Z,84.20
2018-12-30T05:42:14.112Z,84.50
2018-12-30T05:44:44.146Z,84.10
2018-12-30T05:47:14.749Z,84.20
2018-12-30T05:49:45.824Z,83.70
2018-12-30T05:52:15.580Z,83.80
2018-12-30T05:54:45.195Z,84.10
2018-12-30T05:57:14.792Z,84.20
2018-12-30T05:59:44.480Z,84.40
2018-12-30T06:02:14.468Z,83.90
2018-12-30T06:04:44.294Z,83.90
2018-12-30T06:07:14.277Z,84.10
2018-12-30T06:09:44.714Z,83.60
2018-12-30T06:12:14.820Z,83.50
2018-12-30T06:14:44.544Z,83.80
2018-12-30T06:17:14.517Z,84.30
2018-12-30T06:19:44.879Z,84.00
2018-12-30T06:22:14.537Z,83.90
2018-12-30T06:24:44.609Z,84.00
2018-12-30T06:27:14.829Z,84.30
2018-12-30T06:29:44.572Z,84.30
2018-12-30T06:32:14.625Z,84.20
2018-12-30T06:34:44.609Z,84.30
2018-12-30T06:37:15.078Z,84.40
2018-12-30T06:39:44.772Z,83.80
2018-12-30T06:42:14.649Z,84.20
2018-12-30T06:44:44.949Z,83.80
2018-12-30T06:47:15.423Z,83.30
2018-12-30T06:49:45.317Z,83.80
2018-12-30T06:52:15.257Z,83.60
2018-12-30T06:54:45.557Z,83.70
2018-12-30T06:57:15.250Z,84.00
2018-12-30T06:59:45.064Z,85.10
2018-12-30T07:02:15.349Z,84.60
2018-12-30T07:04:45.510Z,84.60
2018-12-30T07:07:15.252Z,84.60
2018-12-30T07:09:45.260Z,84.50
2018-12-30T07:12:15.535Z,84.30
2018-12-30T07:14:45.338Z,84.30
2018-12-30T07:17:15.294Z,84.20
2018-12-30T07:19:45.653Z,84.10
2018-12-30T07:22:15.304Z,83.80
2018-12-30T07:24:45.351Z,84.20
2018-12-30T07:27:15.600Z,84.30
2018-12-30T07:29:45.605Z,83.80
2018-12-30T07:32:15.847Z,84.20
2018-12-30T07:34:46.708Z,84.50
2018-12-30T07:37:16.326Z,84.40
2018-12-30T07:39:45.941Z,84.30
2018-12-30T07:42:15.724Z,84.40
2018-12-30T07:44:45.956Z,85.00
2018-12-30T07:47:16.085Z,84.90
2018-12-30T07:49:45.856Z,84.20
2018-12-30T07:52:16.094Z,84.50
2018-12-30T07:54:46.165Z,84.80
2018-12-30T07:57:16.141Z,84.60
2018-12-30T07:59:45.990Z,84.70
2018-12-30T08:02:15.962Z,84.20
2018-12-30T08:04:45.977Z,84.50
2018-12-30T08:07:16.233Z,84.90
2018-12-30T08:09:46.474Z,85.00
2018-12-30T08:12:16.157Z,85.50
2018-12-30T08:14:46.256Z,85.20
2018-12-30T08:17:16.026Z,85.40
2018-12-30T08:19:46.397Z,85.30
2018-12-30T08:22:16.276Z,85.20
2018-12-30T08:24:46.296Z,85.30
2018-12-30T08:27:16.981Z,85.70
2018-12-30T08:29:46.656Z,86.00
2018-12-30T08:32:17.349Z,85.30
2018-12-30T08:34:47.242Z,85.80
2018-12-30T08:37:16.912Z,85.70
2018-12-30T08:39:46.554Z,86.30
2018-12-30T08:42:17.442Z,86.10
2018-12-30T08:44:47.106Z,86.20
2018-12-30T08:47:16.740Z,86.20
2018-12-30T08:49:46.710Z,86.40
2018-12-30T08:52:16.685Z,86.20
2018-12-30T08:54:47.302Z,86.00
2018-12-30T08:57:17.665Z,86.20
2018-12-30T08:59:47.912Z,85.60
2018-12-30T09:02:17.640Z,85.70
2018-12-30T09:04:47.439Z,85.60
2018-12-30T09:07:17.373Z,85.00
2018-12-30T09:09:47.666Z,85.00
2018-12-30T09:12:17.629Z,85.00
2018-12-30T09:14:47.681Z,84.90
2018-12-30T09:17:18.414Z,84.90
2018-12-30T09:19:48.098Z,84.60
2018-12-30T09:22:18.014Z,84.90
2018-12-30T09:24:47.656Z,85.10
2018-12-30T09:27:17.506Z,84.70
2018-12-30T09:29:47.486Z,84.60
2018-12-30T09:32:17.469Z,84.80
2018-12-30T09:34:47.523Z,84.80
2018-12-30T09:37:17.535Z,85.20
2018-12-30T09:39:47.663Z,85.00
2018-12-30T09:42:17.606Z,85.20
2018-12-30T09:44:47.833Z,85.30
2018-12-30T09:47:17.568Z,85.80
2018-12-30T09:49:47.574Z,86.10
2018-12-30T09:52:17.579Z,86.00
2018-12-30T09:54:47.653Z,86.30
2018-12-30T09:57:17.778Z,85.80
2018-12-30T09:59:47.841Z,85.90
2018-12-30T10:02:17.799Z,86.10
2018-12-30T10:04:47.635Z,86.20
2018-12-30T10:07:17.643Z,85.50
2018-12-30T10:09:47.884Z,85.10
2018-12-30T10:12:17.707Z,86.00
2018-12-30T10:14:48.567Z,85.70
2018-12-30T10:17:18.258Z,85.50
2018-12-30T10:19:47.874Z,85.40
2018-12-30T10:22:17.818Z,85.80
2018-12-30T10:24:47.768Z,85.80
2018-12-30T10:27:17.798Z,85.80
2018-12-30T10:29:48.403Z,86.10
2018-12-30T10:32:18.593Z,85.80
2018-12-30T10:34:48.572Z,86.00
2018-12-30T10:37:18.315Z,85.90
2018-12-30T10:39:47.948Z,85.70
2018-12-30T10:42:17.848Z,85.90
2018-12-30T10:44:47.890Z,86.00
2018-12-30T10:47:17.901Z,86.00
2018-12-30T10:49:47.932Z,85.40
2018-12-30T10:52:17.937Z,85.00
2018-12-30T10:54:47.968Z,84.90
2018-12-30T10:57:18.036Z,84.30
2018-12-30T10:59:48.215Z,84.20
2018-12-30T11:02:17.950Z,83.20
2018-12-30T11:04:47.950Z,84.50
2018-12-30T11:07:18.242Z,84.10
2018-12-30T11:09:48.260Z,84.50
2018-12-30T11:12:19.091Z,84.40
2018-12-30T11:14:49.077Z,84.60
2018-12-30T11:17:19.024Z,84.60
2018-12-30T11:19:48.730Z,84.10
2018-12-30T11:22:18.384Z,84.20
2018-12-30T11:24:48.091Z,84.50
2018-12-30T11:27:18.169Z,83.80
2018-12-30T11:29:48.205Z,83.30
2018-12-30T11:32:18.465Z,83.50
2018-12-30T11:34:48.300Z,83.30
2018-12-30T11:37:18.573Z,83.90
2018-12-30T11:39:48.321Z,83.70
2018-12-30T11:42:18.853Z,84.40
2018-12-30T11:44:48.575Z,82.30
2018-12-30T11:47:18.665Z,82.60
2018-12-30T11:49:48.284Z,83.00
2018-12-30T11:52:18.564Z,83.20
2018-12-30T11:54:48.812Z,83.20
2018-12-30T11:57:18.980Z,83.80
2018-12-30T11:59:48.880Z,82.40
2018-12-30T12:02:23.994Z,82.00
2018-12-30T12:04:50.527Z,81.00
2018-12-30T12:07:21.158Z,80.80
2018-12-30T12:09:50.772Z,81.20
2018-12-30T12:12:20.648Z,81.70
2018-12-30T12:14:50.272Z,81.20
2018-12-30T12:17:20.445Z,81.80
2018-12-30T12:19:50.768Z,81.40
2018-12-30T12:22:20.752Z,81.30
2018-12-30T12:24:50.549Z,81.50
2018-12-30T12:27:20.218Z,82.10
2018-12-30T12:29:49.881Z,80.60
2018-12-30T12:32:19.503Z,80.10
2018-12-30T12:34:49.435Z,80.10
2018-12-30T12:37:19.064Z,80.10
2018-12-30T12:39:49.053Z,79.40
2018-12-30T12:42:19.357Z,80.60
2018-12-30T12:44:49.084Z,80.00
2018-12-30T12:47:19.113Z,80.20
2018-12-30T12:49:49.381Z,79.70
2018-12-30T12:52:19.209Z,79.50
2018-12-30T12:54:49.265Z,79.90
2018-12-30T12:57:19.214Z,79.80
2018-12-30T12:59:49.198Z,79.80
2018-12-30T13:02:19.585Z,80.00
2018-12-30T13:04:49.766Z,79.90
2018-12-30T13:07:19.408Z,79.80
2018-12-30T13:09:49.521Z,79.90
2018-12-30T13:12:19.298Z,79.90
2018-12-30T13:14:49.301Z,79.90
2018-12-30T13:17:19.423Z,80.40
2018-12-30T13:19:49.802Z,79.80
2018-12-30T13:22:19.713Z,80.60
2018-12-30T13:24:49.420Z,79.50
2018-12-30T13:27:19.722Z,79.40
2018-12-30T13:29:49.696Z,80.20
2018-12-30T13:32:19.451Z,78.50
2018-12-30T13:34:49.449Z,79.00
2018-12-30T13:37:19.883Z,79.50
2018-12-30T13:39:49.512Z,79.10
2018-12-30T13:42:19.538Z,79.70
2018-12-30T13:44:51.466Z,79.90
2018-12-30T13:47:24.480Z,80.20
2018-12-30T13:49:54.982Z,79.80
2018-12-30T13:52:24.919Z,80.20
2018-12-30T13:54:54.540Z,80.30
2018-12-30T13:57:24.422Z,80.50
2018-12-30T13:59:54.037Z,80.30
2018-12-30T14:02:23.741Z,81.20
2018-12-30T14:04:53.316Z,81.10
2018-12-30T14:07:22.946Z,80.10
2018-12-30T14:09:52.629Z,80.20
2018-12-30T14:12:22.546Z,80.30
2018-12-30T14:14:52.172Z,81.00
2018-12-30T14:17:21.790Z,79.60
2018-12-30T14:19:51.399Z,80.40
2018-12-30T14:22:21.331Z,80.70
2018-12-30T14:24:55.327Z,80.70
2018-12-30T14:27:22.601Z,80.90
2018-12-30T14:29:52.237Z,81.30
2018-12-30T14:32:22.194Z,81.40
2018-12-30T14:34:52.067Z,81.10
2018-12-30T14:37:21.778Z,81.30
2018-12-30T14:39:51.502Z,81.70
2018-12-30T14:42:21.793Z,81.40
2018-12-30T14:44:51.410Z,81.60
2018-12-30T14:47:21.180Z,81.80
2018-12-30T14:49:50.787Z,81.70
2018-12-30T14:52:20.417Z,81.60
2018-12-30T14:54:50.028Z,81.80
2018-12-30T14:57:20.000Z,81.70
2018-12-30T14:59:50.064Z,81.90
2018-12-30T15:02:19.979Z,82.00
2018-12-30T15:04:50.316Z,82.30
2018-12-30T15:07:20.109Z,82.40
2018-12-30T15:09:50.013Z,82.30
2018-12-30T15:12:20.340Z,82.40
2018-12-30T15:14:50.030Z,82.10
2018-12-30T15:17:20.026Z,82.30
2018-12-30T15:19:50.429Z,82.40
2018-12-30T15:22:20.346Z,82.40
2018-12-30T15:24:50.332Z,82.80
2018-12-30T15:27:20.094Z,82.70
2018-12-30T15:29:50.010Z,82.70
2018-12-30T15:32:20.027Z,82.90
2018-12-30T15:34:50.144Z,82.90
2018-12-30T15:37:20.062Z,83.20
2018-12-30T15:39:50.086Z,83.50
2018-12-30T15:42:20.486Z,83.20
2018-12-30T15:44:50.122Z,83.50
2018-12-30T15:47:20.103Z,83.90
2018-12-30T15:49:50.437Z,83.80
2018-12-30T15:52:20.104Z,83.90
2018-12-30T15:54:50.184Z,84.00
2018-12-30T15:57:20.200Z,84.40
2018-12-30T15:59:50.527Z,84.40
2018-12-30T16:02:20.558Z,85.30
2018-12-30T16:04:50.556Z,84.70
2018-12-30T16:07:20.861Z,84.70
2018-12-30T16:09:50.901Z,84.60
2018-12-30T16:12:20.513Z,85.00
2018-12-30T16:14:50.725Z,85.00
2018-12-30T16:17:20.818Z,85.50
2018-12-30T16:19:50.574Z,85.30
2018-12-30T16:22:21.134Z,85.20
2018-12-30T16:24:50.858Z,85.70
2018-12-30T16:27:20.637Z,85.90
2018-12-30T16:29:50.650Z,86.20
2018-12-30T16:32:20.690Z,86.00
2018-12-30T16:34:50.745Z,86.00
2018-12-30T16:37:20.733Z,86.10
2018-12-30T16:39:50.725Z,85.80
2018-12-30T16:42:20.649Z,85.90
2018-12-30T16:44:50.961Z,85.60
2018-12-30T16:47:20.677Z,86.00
2018-12-30T16:49:50.723Z,85.70
2018-12-30T16:52:20.740Z,85.90
2018-12-30T16:54:51.226Z,86.00
2018-12-30T16:57:20.896Z,85.80
2018-12-30T16:59:50.729Z,86.00
2018-12-30T17:02:20.805Z,86.50
2018-12-30T17:04:50.815Z,86.40
2018-12-30T17:07:20.853Z,86.10
2018-12-30T17:09:51.073Z,86.80
2018-12-30T17:12:21.153Z,86.50
2018-12-30T17:14:51.226Z,86.40
2018-12-30T17:17:20.948Z,87.20
2018-12-30T17:19:51.201Z,87.20
2018-12-30T17:22:20.949Z,88.10
2018-12-30T17:24:50.962Z,87.50
2018-12-30T17:27:21.045Z,88.90
2018-12-30T17:29:51.008Z,88.10
2018-12-30T17:32:21.339Z,88.80
2018-12-30T17:34:51.066Z,88.50
2018-12-30T17:37:21.330Z,89.10
2018-12-30T17:39:51.078Z,89.50
2018-12-30T17:42:21.533Z,89.90
2018-12-30T17:44:51.158Z,90.00
2018-12-30T17:47:21.723Z,90.00
2018-12-30T17:49:51.590Z,90.00
2018-12-30T17:52:21.219Z,90.40
2018-12-30T17:54:51.072Z,90.10
2018-12-30T17:57:21.081Z,90.50
2018-12-30T17:59:51.365Z,90.10
2018-12-30T18:02:21.252Z,90.40
2018-12-30T18:04:51.469Z,90.20
2018-12-30T18:07:21.172Z,90.50
2018-12-30T18:09:52.225Z,90.40
2018-12-30T18:12:21.841Z,90.40
2018-12-30T18:14:51.785Z,90.50
2018-12-30T18:17:21.638Z,90.60
2018-12-30T18:19:51.564Z,90.60
2018-12-30T18:22:21.458Z,90.40
2018-12-30T18:24:51.193Z,90.60
2018-12-30T18:27:21.196Z,90.60
2018-12-30T18:29:51.241Z,90.70
2018-12-30T18:32:21.761Z,91.10
2018-12-30T18:34:51.382Z,91.10
2018-12-30T18:37:21.652Z,90.90
2018-12-30T18:39:51.272Z,91.00
2018-12-30T18:42:21.330Z,90.80
2018-12-30T18:44:51.357Z,90.80
2018-12-30T18:47:21.432Z,90.80
2018-12-30T18:49:51.424Z,90.80
2018-12-30T18:52:21.497Z,91.00
2018-12-30T18:54:51.706Z,91.10
2018-12-30T18:57:21.525Z,90.90
2018-12-30T18:59:51.702Z,91.00
2018-12-30T19:02:21.582Z,91.20
2018-12-30T19:04:51.909Z,91.20
2018-12-30T19:07:21.621Z,91.20
2018-12-30T19:09:51.986Z,91.00
2018-12-30T19:12:22.257Z,91.20
2018-12-30T19:14:51.885Z,91.20
2018-12-30T19:17:21.708Z,91.30
2018-12-30T19:19:51.598Z,91.00
2018-12-30T19:22:21.635Z,91.10
2018-12-30T19:24:51.709Z,91.10
2018-12-30T19:27:21.834Z,91.40
2018-12-30T19:29:52.068Z,91.30
2018-12-30T19:32:21.707Z,91.30
2018-12-30T19:34:51.649Z,91.40
2018-12-30T19:37:21.741Z,91.40
2018-12-30T19:39:51.995Z,91.20
2018-12-30T19:42:21.764Z,91.30
2018-12-30T19:44:51.799Z,91.40
2018-12-30T19:47:21.845Z,91.30
2018-12-30T19:49:52.084Z,91.50
2018-12-30T19:52:21.842Z,91.30
2018-12-30T19:54:52.399Z,91.60
2018-12-30T19:57:22.285Z,91.70
2018-12-30T19:59:52.536Z,91.90
2018-12-30T20:02:22.346Z,91.80
2018-12-30T20:04:52.241Z,91.90
2018-12-30T20:07:22.557Z,91.90
2018-12-30T20:09:52.269Z,91.80
2018-12-30T20:12:22.269Z,91.80
2018-12-30T20:14:52.598Z,91.70
2018-12-30T20:17:22.345Z,91.80
2018-12-30T20:19:52.612Z,91.80
2018-12-30T20:22:22.657Z,91.90
2018-12-30T20:24:52.389Z,91.90
2018-12-30T20:27:22.422Z,92.10
2018-12-30T20:29:52.434Z,92.20
2018-12-30T20:32:22.455Z,92.20
2018-12-30T20:34:53.385Z,92.10
2018-12-30T20:37:23.006Z,92.10
2018-12-30T20:39:52.796Z,92.00
2018-12-30T20:42:22.586Z,92.10
2018-12-30T20:44:52.483Z,92.20
2018-12-30T20:47:22.548Z,92.30
2018-12-30T20:49:52.632Z,92.60
2018-12-30T20:52:22.794Z,92.20
2018-12-30T20:54:53.443Z,92.40
2018-12-30T20:57:23.097Z,92.30
2018-12-30T20:59:53.342Z,92.50
2018-12-30T21:02:23.638Z,92.40
2018-12-30T21:04:53.515Z,92.70
2018-12-30T21:07:23.411Z,92.40
2018-12-30T21:09:53.244Z,92.30
2018-12-30T21:12:23.245Z,92.30
2018-12-30T21:14:53.480Z,92.80
2018-12-30T21:17:23.260Z,92.30
2018-12-30T21:19:53.264Z,92.30
2018-12-30T21:22:23.306Z,92.50
2018-12-30T21:24:53.301Z,92.50
2018-12-30T21:27:23.318Z,92.50
2018-12-30T21:29:53.341Z,92.50
2018-12-30T21:32:23.686Z,92.50
2018-12-30T21:34:54.024Z,92.30
2018-12-30T21:37:23.893Z,92.50
2018-12-30T21:39:53.553Z,92.30
2018-12-30T21:42:23.604Z,92.00
2018-12-30T21:44:53.842Z,92.40
2018-12-30T21:47:23.638Z,92.40
2018-12-30T21:49:53.932Z,92.40
2018-12-30T21:52:23.665Z,92.50
2018-12-30T21:54:53.672Z,92.30
2018-12-30T21:57:23.701Z,92.20
2018-12-30T21:59:53.696Z,92.20
2018-12-30T22:02:24.134Z,92.30
2018-12-30T22:04:53.749Z,92.30
2018-12-30T22:07:23.822Z,92.10
2018-12-30T22:09:53.796Z,92.20
2018-12-30T22:12:23.804Z,92.10
2018-12-30T22:14:53.823Z,92.10
2018-12-30T22:17:23.757Z,92.10
2018-12-30T22:19:54.140Z,91.90
2018-12-30T22:22:23.881Z,92.20
2018-12-30T22:24:53.925Z,91.90
2018-12-30T22:27:23.810Z,91.90
2018-12-30T22:29:54.368Z,92.20
2018-12-30T22:32:23.985Z,92.10
2018-12-30T22:34:53.886Z,92.20
2018-12-30T22:37:24.123Z,92.20
2018-12-30T22:39:54.177Z,92.20
2018-12-30T22:42:23.924Z,91.90
2018-12-30T22:44:53.945Z,91.90
2018-12-30T22:47:23.957Z,91.80
2018-12-30T22:49:54.317Z,91.80
2018-12-30T22:52:24.406Z,91.80
2018-12-30T22:54:54.954Z,92.00
2018-12-30T22:57:25.058Z,91.90
2018-12-30T22:59:55.128Z,91.70
2018-12-30T23:02:25.395Z,91.70
2018-12-30T23:04:55.845Z,91.80
2018-12-30T23:07:25.711Z,92.00
2018-12-30T23:09:55.338Z,92.10
2018-12-30T23:12:25.073Z,92.00
2018-12-30T23:14:55.393Z,92.20
2018-12-30T23:17:25.205Z,92.30
2018-12-30T23:19:55.500Z,92.30
2018-12-30T23:22:25.175Z,92.20
2018-12-30T23:24:55.165Z,92.20
2018-12-30T23:27:25.478Z,92.10
2018-12-30T23:29:55.201Z,92.20
2018-12-30T23:32:25.562Z,92.20
2018-12-30T23:34:55.910Z,92.30
2018-12-30T23:37:25.530Z,92.10
2018-12-30T23:39:55.288Z,92.10
2018-12-30T23:42:25.410Z,92.10
2018-12-30T23:44:55.309Z,92.10
2018-12-30T23:47:25.324Z,92.20
2018-12-30T23:49:55.689Z,92.30
2018-12-30T23:52:25.385Z,92.20
2018-12-30T23:54:55.009Z,92.10
2018-12-30T23:57:24.650Z,92.00
2018-12-30T23:59:54.409Z,92.00
